createdAt,value
2023-04-21T00:03:44.540Z,6.62
2023-04-21T00:08:44.318Z,6.73
2023-04-21T00:13:44.215Z,6.71
2023-04-21T00:18:44.155Z,6.69
2023-04-21T00:23:44.086Z,6.65
2023-04-21T00:28:44.023Z,6.76
2023-04-21T00:33:43.951Z,6.71
2023-04-21T00:38:43.891Z,6.56
2023-04-21T00:43:43.819Z,6.62
2023-04-21T00:48:43.763Z,6.48
2023-04-21T00:53:43.706Z,6.33
2023-04-21T00:58:43.627Z,6.18
2023-04-21T01:03:43.787Z,6.09
2023-04-21T01:08:43.483Z,6.04
2023-04-21T01:13:43.411Z,6.19
2023-04-21T01:18:43.352Z,6.14
2023-04-21T01:23:43.279Z,6.16
2023-04-21T01:28:43.225Z,6.14
2023-04-21T01:33:43.146Z,6.11
2023-04-21T01:38:43.106Z,6.03
2023-04-21T01:43:43.021Z,5.96
2023-04-21T01:48:42.959Z,5.96
2023-04-21T01:53:42.903Z,5.93
2023-04-21T01:58:42.829Z,5.88
2023-04-21T02:03:43.064Z,5.74
2023-04-21T02:08:42.921Z,5.68
2023-04-21T02:13:42.616Z,5.59
2023-04-21T02:18:42.601Z,5.63
2023-04-21T02:23:42.494Z,5.55
2023-04-21T02:28:42.442Z,5.46
2023-04-21T02:33:42.362Z,5.27
2023-04-21T02:38:42.306Z,5.34
2023-04-21T02:43:42.241Z,5.50
2023-04-21T02:48:42.187Z,5.48
2023-04-21T02:53:42.119Z,5.43
2023-04-21T02:58:42.057Z,5.32
2023-04-21T03:03:42.017Z,5.20
2023-04-21T03:08:41.957Z,5.13
2023-04-21T03:13:41.895Z,5.16
2023-04-21T03:18:41.808Z,5.01
2023-04-21T03:23:41.726Z,4.96
2023-04-21T03:28:41.670Z,4.80
2023-04-21T03:33:41.603Z,4.88
2023-04-21T03:38:41.547Z,4.89
2023-04-21T03:43:41.474Z,4.98
2023-04-21T03:48:41.428Z,5.12
2023-04-21T03:53:41.351Z,5.13
2023-04-21T03:58:41.308Z,4.94
2023-04-21T04:03:41.415Z,4.76
2023-04-21T04:08:41.241Z,4.99
2023-04-21T04:13:41.112Z,4.94
2023-04-21T04:18:41.039Z,4.95
2023-04-21T04:23:40.966Z,5.16
2023-04-21T04:28:40.936Z,5.37
2023-04-21T04:33:40.837Z,5.75
2023-04-21T04:38:40.774Z,5.96
2023-04-21T04:43:40.699Z,6.73
2023-04-21T04:48:40.664Z,7.49
2023-04-21T04:53:40.592Z,9.13
2023-04-21T04:58:40.511Z,10.39
2023-04-21T05:03:40.566Z,11.41
2023-04-21T05:08:40.381Z,12.52
2023-04-21T05:13:40.419Z,13.54
2023-04-21T05:18:40.270Z,14.13
2023-04-21T05:23:40.170Z,14.84
2023-04-21T05:28:40.131Z,15.20
2023-04-21T05:33:40.054Z,15.81
2023-04-21T05:38:40.270Z,16.34
2023-04-21T05:43:39.928Z,16.71
2023-04-21T05:48:39.892Z,17.85
2023-04-21T05:53:39.957Z,18.99
2023-04-21T05:58:39.778Z,19.87
2023-04-21T06:03:40.496Z,19.88
2023-04-21T06:08:39.666Z,20.33
2023-04-21T06:13:41.647Z,20.61
2023-04-21T06:18:39.530Z,20.51
2023-04-21T06:23:39.442Z,20.64
2023-04-21T06:28:39.401Z,20.64
2023-04-21T06:33:39.295Z,20.61
2023-04-21T06:38:39.228Z,20.91
2023-04-21T06:43:39.157Z,21.08
2023-04-21T06:48:39.129Z,20.96
2023-04-21T06:53:39.059Z,20.62
2023-04-21T06:58:38.978Z,21.06
2023-04-21T07:03:38.995Z,21.27
2023-04-21T07:08:38.861Z,21.36
2023-04-21T07:13:38.789Z,21.46
2023-04-21T07:18:38.719Z,21.81
2023-04-21T07:23:38.697Z,22.14
2023-04-21T07:28:38.611Z,22.41
2023-04-21T07:33:38.587Z,22.52
2023-04-21T07:38:38.479Z,21.78
2023-04-21T07:43:38.439Z,21.50
2023-04-21T07:48:38.380Z,22.04
2023-04-21T07:53:38.292Z,22.02
2023-04-21T07:58:38.224Z,22.16
2023-04-21T08:03:38.601Z,21.97
2023-04-21T08:08:38.098Z,22.10
2023-04-21T08:13:38.044Z,22.23
2023-04-21T08:18:38.028Z,22.35
2023-04-21T08:23:37.911Z,21.81
2023-04-21T08:28:37.878Z,22.14
2023-04-21T08:33:43.897Z,22.16
2023-04-21T08:38:38.815Z,22.16
2023-04-21T08:43:37.723Z,21.56
2023-04-21T08:48:37.613Z,20.84
2023-04-21T08:53:37.532Z,20.84
2023-04-21T08:58:37.531Z,20.43
2023-04-21T09:03:37.693Z,20.27
2023-04-21T09:08:37.367Z,20.21
2023-04-21T09:13:37.304Z,20.23
2023-04-21T09:18:37.284Z,20.31
2023-04-21T09:23:37.153Z,20.33
2023-04-21T09:28:37.136Z,20.28
2023-04-21T09:33:46.107Z,20.30
2023-04-21T09:38:37.965Z,20.62
2023-04-21T09:43:36.905Z,20.65
2023-04-21T09:48:36.832Z,20.71
2023-04-21T09:53:36.749Z,20.80
2023-04-21T09:58:36.725Z,21.02
2023-04-21T10:03:36.741Z,20.90
2023-04-21T10:08:36.565Z,21.14
2023-04-21T10:13:36.507Z,21.39
2023-04-21T10:18:36.435Z,21.61
2023-04-21T10:23:36.432Z,21.39
2023-04-21T10:28:36.322Z,21.19
2023-04-21T10:33:36.253Z,21.38
2023-04-21T10:38:36.205Z,21.44
2023-04-21T10:43:36.123Z,21.51
2023-04-21T10:48:36.077Z,21.45
2023-04-21T10:53:36.056Z,21.44
2023-04-21T10:58:35.977Z,21.19
2023-04-21T11:03:36.037Z,21.59
2023-04-21T11:08:37.750Z,21.67
2023-04-21T11:13:35.780Z,21.82
2023-04-21T11:18:35.839Z,21.95
2023-04-21T11:23:35.634Z,21.95
2023-04-21T11:28:35.553Z,22.06
2023-04-21T11:33:35.482Z,21.82
2023-04-21T11:38:35.413Z,21.64
2023-04-21T11:43:35.364Z,21.66
2023-04-21T11:48:35.302Z,21.88
2023-04-21T11:53:35.259Z,21.83
2023-04-21T11:58:35.186Z,21.78
2023-04-21T12:03:35.272Z,21.92
2023-04-21T12:08:35.068Z,21.78
2023-04-21T12:13:34.986Z,21.79
2023-04-21T12:18:36.637Z,21.39
2023-04-21T12:23:34.971Z,21.51
2023-04-21T12:28:34.787Z,21.83
2023-04-21T12:33:34.759Z,22.20
2023-04-21T12:38:35.487Z,22.10
2023-04-21T12:43:34.627Z,21.99
2023-04-21T12:48:34.576Z,22.09
2023-04-21T12:53:34.476Z,22.06
2023-04-21T12:58:34.412Z,22.28
2023-04-21T13:03:34.529Z,22.31
2023-04-21T13:08:34.745Z,22.49
2023-04-21T13:13:34.175Z,22.68
2023-04-21T13:18:34.120Z,22.65
2023-04-21T13:23:34.048Z,22.56
2023-04-21T13:28:33.982Z,22.44
2023-04-21T13:33:33.924Z,22.32
2023-04-21T13:38:33.848Z,22.09
2023-04-21T13:43:33.768Z,21.85
2023-04-21T13:48:33.737Z,22.06
2023-04-21T13:53:33.668Z,21.98
2023-04-21T13:58:33.621Z,21.94
2023-04-21T14:03:33.762Z,21.72
2023-04-21T14:08:33.454Z,21.42
2023-04-21T14:13:37.822Z,21.23
2023-04-21T14:18:34.353Z,21.13
2023-04-21T14:23:33.260Z,20.81
2023-04-21T14:28:33.212Z,20.79
2023-04-21T14:33:33.365Z,20.84
2023-04-21T14:38:33.115Z,20.74
2023-04-21T14:43:32.976Z,20.72
2023-04-21T14:48:32.921Z,20.77
2023-04-21T14:53:32.852Z,20.77
2023-04-21T14:58:32.858Z,20.98
2023-04-21T15:03:32.831Z,21.09
2023-04-21T15:08:32.660Z,20.96
2023-04-21T15:13:32.653Z,20.89
2023-04-21T15:18:32.522Z,20.69
2023-04-21T15:23:32.460Z,20.64
2023-04-21T15:28:32.392Z,20.62
2023-04-21T15:33:32.370Z,20.76
2023-04-21T15:38:32.336Z,20.89
2023-04-21T15:43:32.217Z,20.66
2023-04-21T15:48:32.238Z,20.62
2023-04-21T15:53:32.071Z,20.58
2023-04-21T15:58:32.075Z,20.47
2023-04-21T16:03:32.086Z,20.35
2023-04-21T16:08:31.886Z,20.23
2023-04-21T16:13:31.793Z,20.33
2023-04-21T16:18:31.834Z,20.27
2023-04-21T16:23:31.718Z,20.06
2023-04-21T16:28:31.611Z,19.80
2023-04-21T16:33:31.537Z,19.76
2023-04-21T16:38:31.551Z,19.69
2023-04-21T16:43:31.514Z,19.58
2023-04-21T16:48:31.372Z,19.68
2023-04-21T16:53:31.272Z,19.43
2023-04-21T16:58:31.197Z,19.02
2023-04-21T17:03:31.466Z,18.90
2023-04-21T17:08:31.073Z,18.73
2023-04-21T17:13:31.004Z,18.55
2023-04-21T17:18:30.935Z,18.34
2023-04-21T17:23:30.874Z,18.24
2023-04-21T17:28:30.797Z,18.21
2023-04-21T17:33:30.808Z,18.03
2023-04-21T17:38:30.662Z,17.81
2023-04-21T17:43:30.635Z,17.73
2023-04-21T17:48:30.540Z,17.54
2023-04-21T17:53:30.471Z,17.48
2023-04-21T17:58:30.410Z,17.32
2023-04-21T18:03:30.447Z,17.15
2023-04-21T18:08:30.266Z,16.93
2023-04-21T18:13:30.211Z,16.80
2023-04-21T18:18:30.157Z,16.71
2023-04-21T18:23:30.087Z,16.73
2023-04-21T18:28:30.010Z,16.50
2023-04-21T18:33:29.973Z,16.35
2023-04-21T18:38:29.886Z,16.07
2023-04-21T18:43:29.844Z,15.92
2023-04-21T18:48:29.750Z,15.70
2023-04-21T18:53:29.683Z,15.61
2023-04-21T18:58:29.619Z,15.46
2023-04-21T19:03:29.716Z,15.35
2023-04-21T19:08:41.446Z,15.24
2023-04-21T19:13:30.416Z,15.11
2023-04-21T19:18:29.344Z,15.05
2023-04-21T19:23:29.284Z,14.88
2023-04-21T19:28:29.217Z,14.75
2023-04-21T19:33:29.155Z,14.64
2023-04-21T19:38:29.095Z,14.52
2023-04-21T19:43:29.031Z,14.35
2023-04-21T19:48:29.131Z,14.53
2023-04-21T19:53:28.920Z,14.83
2023-04-21T19:58:39.494Z,15.03
2023-04-21T20:03:29.885Z,14.87
2023-04-21T20:08:28.721Z,14.72
2023-04-21T20:13:28.652Z,14.56
2023-04-21T20:18:28.582Z,14.42
2023-04-21T20:23:28.530Z,14.43
2023-04-21T20:28:28.455Z,14.35
2023-04-21T20:33:28.415Z,14.27
2023-04-21T20:38:28.316Z,14.17
2023-04-21T20:43:28.255Z,13.81
2023-04-21T20:48:28.212Z,13.47
2023-04-21T20:53:28.122Z,13.25
2023-04-21T20:58:28.068Z,13.15
2023-04-21T21:03:28.376Z,13.21
2023-04-21T21:08:27.924Z,13.07
2023-04-21T21:13:27.851Z,12.96
2023-04-21T21:18:27.794Z,12.84
2023-04-21T21:23:27.745Z,12.67
2023-04-21T21:28:27.656Z,12.57
2023-04-21T21:33:27.587Z,12.37
2023-04-21T21:38:27.544Z,12.16
2023-04-21T21:43:27.460Z,11.96
2023-04-21T21:48:27.421Z,11.97
2023-04-21T21:53:27.319Z,11.74
2023-04-21T21:58:27.274Z,11.56
2023-04-21T22:03:27.412Z,11.46
2023-04-21T22:08:27.133Z,11.57
2023-04-21T22:13:27.067Z,11.64
2023-04-21T22:18:27.016Z,11.65
2023-04-21T22:23:26.946Z,11.59
2023-04-21T22:28:26.885Z,11.41
2023-04-21T22:33:26.813Z,11.06
2023-04-21T22:38:26.737Z,10.83
2023-04-21T22:43:26.673Z,10.73
2023-04-21T22:48:26.597Z,10.66
2023-04-21T22:53:26.551Z,10.58
2023-04-21T22:58:26.487Z,10.56
2023-04-21T23:03:26.620Z,10.43
2023-04-21T23:08:26.346Z,10.34
2023-04-21T23:13:26.271Z,10.26
2023-04-21T23:18:26.201Z,10.10
2023-04-21T23:23:26.139Z,10.07
2023-04-21T23:28:26.062Z,10.01
2023-04-21T23:33:26.005Z,9.86
2023-04-21T23:38:25.954Z,9.73
2023-04-21T23:43:25.855Z,9.57
2023-04-21T23:48:25.825Z,9.40
2023-04-21T23:53:25.768Z,9.53
2023-04-21T23:58:25.682Z,9.57
